createdAt,value
2018-04-14T00:00:09.686Z,50.33
2018-04-14T00:02:38.024Z,50.93
2018-04-14T00:05:06.397Z,53.33
2018-04-14T00:07:34.749Z,52.28
2018-04-14T00:10:03.111Z,52.27
2018-04-14T00:12:31.455Z,48.70
2018-04-14T00:14:59.825Z,49.15
2018-04-14T00:17:28.236Z,50.88
2018-04-14T00:19:56.608Z,47.35
2018-04-14T00:22:24.957Z,52.83
2018-04-14T00:24:53.321Z,49.30
2018-04-14T00:27:21.673Z,51.83
2018-04-14T00:29:50.041Z,52.67
2018-04-14T00:32:18.397Z,49.13
2018-04-14T00:34:46.764Z,51.70
2018-04-14T00:37:15.113Z,49.50
2018-04-14T00:39:43.526Z,52.72
2018-04-14T00:42:11.820Z,51.87
2018-04-14T00:44:40.189Z,48.05
2018-04-14T00:47:08.528Z,50.57
2018-04-14T00:49:36.897Z,50.45
2018-04-14T00:52:05.240Z,49.60
2018-04-14T00:54:33.612Z,47.72
2018-04-14T00:57:01.964Z,49.00
2018-04-14T00:59:30.331Z,46.30
2018-04-14T01:01:58.668Z,48.17
2018-04-14T01:04:27.037Z,49.00
2018-04-14T01:06:55.389Z,47.70
2018-04-14T01:09:23.752Z,49.63
2018-04-14T01:11:52.096Z,47.40
2018-04-14T01:14:20.465Z,48.58
2018-04-14T01:16:48.815Z,46.92
2018-04-14T01:19:17.176Z,47.42
2018-04-14T01:21:45.527Z,46.90
2018-04-14T01:24:13.886Z,44.80
2018-04-14T01:26:42.229Z,47.47
2018-04-14T01:29:10.600Z,46.53
2018-04-14T01:31:38.948Z,49.28
2018-04-14T01:34:07.337Z,47.60
2018-04-14T01:36:35.685Z,47.33
2018-04-14T01:39:04.045Z,48.13
2018-04-14T01:41:32.417Z,47.58
2018-04-14T01:44:00.761Z,45.90
2018-04-14T01:46:29.132Z,47.28
2018-04-14T01:48:57.481Z,47.38
2018-04-14T01:51:25.841Z,48.73
2018-04-14T01:53:54.194Z,46.50
2018-04-14T01:56:22.553Z,45.30
2018-04-14T01:58:50.905Z,45.28
2018-04-14T02:01:19.264Z,46.92
2018-04-14T02:03:47.625Z,46.37
2018-04-14T02:06:15.992Z,48.13
2018-04-14T02:08:44.339Z,47.55
2018-04-14T02:11:12.704Z,49.97
2018-04-14T02:13:41.057Z,48.38
2018-04-14T02:16:09.416Z,48.43
2018-04-14T02:18:37.762Z,49.00
2018-04-14T02:21:06.136Z,47.88
2018-04-14T02:23:34.485Z,49.78
2018-04-14T02:26:02.858Z,45.50
2018-04-14T02:28:31.220Z,50.00
2018-04-14T02:30:59.581Z,50.00
2018-04-14T02:33:27.941Z,50.88
2018-04-14T02:35:56.301Z,50.30
2018-04-14T02:38:24.653Z,50.33
2018-04-14T02:40:53.044Z,50.70
2018-04-14T02:43:21.392Z,53.47
2018-04-14T02:45:49.769Z,52.17
2018-04-14T02:48:18.104Z,52.30
2018-04-14T02:50:46.481Z,51.90
2018-04-14T02:53:14.830Z,54.08
2018-04-14T02:55:43.208Z,55.85
2018-04-14T02:58:11.561Z,52.17
2018-04-14T03:00:39.936Z,55.50
2018-04-14T03:03:08.301Z,53.65
2018-04-14T03:05:36.673Z,50.78
2018-04-14T03:08:05.022Z,53.57
2018-04-14T03:10:33.393Z,53.13
2018-04-14T03:13:01.746Z,53.92
2018-04-14T03:15:30.116Z,53.70
2018-04-14T03:17:58.465Z,54.37
2018-04-14T03:20:26.836Z,52.22
2018-04-14T03:22:55.181Z,54.37
2018-04-14T03:25:23.545Z,54.92
2018-04-14T03:27:51.905Z,53.53
2018-04-14T03:30:20.276Z,55.58
2018-04-14T03:32:48.625Z,53.28
2018-04-14T03:35:16.993Z,56.13
2018-04-14T03:37:45.332Z,54.17
2018-04-14T03:40:13.684Z,55.92
2018-04-14T03:42:42.048Z,57.10
2018-04-14T03:45:10.397Z,56.78
2018-04-14T03:47:38.769Z,57.38
2018-04-14T03:50:07.120Z,55.33
2018-04-14T03:52:35.492Z,58.75
2018-04-14T03:55:03.846Z,58.90
2018-04-14T03:57:32.216Z,59.67
2018-04-14T04:00:00.570Z,60.03
2018-04-14T04:02:28.947Z,59.70
2018-04-14T04:04:57.303Z,58.33
2018-04-14T04:07:25.665Z,58.80
2018-04-14T04:09:54.019Z,60.72
2018-04-14T04:12:22.389Z,60.53
2018-04-14T04:14:50.740Z,60.45
2018-04-14T04:17:19.118Z,58.92
2018-04-14T04:19:59.268Z,58.75
2018-04-14T04:22:39.309Z,59.63
2018-04-14T04:28:04.328Z,59.20
2018-04-14T04:30:32.397Z,61.13
2018-04-14T04:33:00.478Z,61.25
2018-04-14T04:35:28.545Z,58.17
2018-04-14T04:37:56.633Z,57.38
2018-04-14T04:40:24.696Z,61.75
2018-04-14T04:42:52.777Z,60.22
2018-04-14T04:45:20.849Z,60.15
2018-04-14T04:47:48.932Z,60.97
2018-04-14T04:50:16.996Z,61.40
2018-04-14T04:52:45.080Z,64.90
2018-04-14T04:55:13.140Z,60.42
2018-04-14T04:57:41.230Z,61.83
2018-04-14T05:00:09.287Z,64.10
2018-04-14T05:02:37.381Z,65.15
2018-04-14T05:05:05.449Z,66.00
2018-04-14T05:07:33.537Z,65.82
2018-04-14T05:10:01.600Z,71.35
2018-04-14T05:12:29.685Z,72.35
2018-04-14T05:14:57.757Z,78.55
2018-04-14T05:17:25.845Z,71.37
2018-04-14T05:19:53.900Z,68.65
2018-04-14T05:22:21.991Z,66.72
2018-04-14T05:24:50.059Z,60.28
2018-04-14T05:27:18.136Z,57.88
2018-04-14T05:29:46.200Z,59.25
2018-04-14T05:32:14.284Z,56.80
2018-04-14T05:34:42.356Z,58.35
2018-04-14T05:37:10.450Z,54.60
2018-04-14T05:39:38.533Z,56.42
2018-04-14T05:42:06.645Z,56.45
2018-04-14T05:44:34.697Z,53.05
2018-04-14T05:47:02.789Z,52.65
2018-04-14T05:49:30.857Z,56.47
2018-04-14T05:51:58.952Z,55.05
2018-04-14T05:54:27.017Z,52.80
2018-04-14T05:56:55.108Z,53.50
2018-04-14T05:59:23.175Z,54.03
2018-04-14T06:01:51.261Z,48.45
2018-04-14T06:04:19.333Z,49.90
2018-04-14T06:06:47.425Z,48.03
2018-04-14T06:09:15.561Z,48.17
2018-04-14T06:11:43.620Z,46.75
2018-04-14T06:14:11.689Z,47.85
2018-04-14T06:16:39.757Z,44.58
2018-04-14T06:19:07.848Z,44.13
2018-04-14T06:21:35.914Z,45.43
2018-04-14T06:24:03.996Z,43.22
2018-04-14T06:26:32.060Z,44.70
2018-04-14T06:29:00.150Z,44.25
2018-04-14T06:31:28.212Z,43.97
2018-04-14T06:33:56.304Z,43.65
2018-04-14T06:36:24.377Z,47.15
2018-04-14T06:38:52.485Z,46.95
2018-04-14T06:41:20.552Z,45.15
2018-04-14T06:43:48.643Z,41.92
2018-04-14T06:46:16.715Z,46.33
2018-04-14T06:48:44.800Z,48.08
2018-04-14T06:51:12.857Z,46.97
2018-04-14T06:53:40.928Z,42.90
2018-04-14T06:56:08.993Z,50.43
2018-04-14T06:58:37.095Z,48.35
2018-04-14T07:01:05.158Z,47.70
2018-04-14T07:03:34.099Z,46.13
2018-04-14T07:06:02.161Z,49.57
2018-04-14T07:08:30.240Z,48.43
2018-04-14T07:10:58.300Z,49.00
2018-04-14T07:13:26.381Z,48.40
2018-04-14T07:15:54.448Z,46.97
2018-04-14T07:18:22.525Z,48.13
2018-04-14T07:20:50.593Z,46.83
2018-04-14T07:23:19.178Z,47.40
2018-04-14T07:25:47.564Z,47.70
2018-04-14T07:28:15.646Z,46.90
2018-04-14T07:30:43.709Z,57.80
2018-04-14T07:33:11.784Z,48.60
2018-04-14T07:35:39.837Z,44.40
2018-04-14T07:38:07.917Z,47.70
2018-04-14T07:40:35.969Z,48.50
2018-04-14T07:43:04.056Z,45.63
2018-04-14T07:45:32.128Z,44.33
2018-04-14T07:48:00.210Z,47.20
2018-04-14T07:50:28.264Z,45.38
2018-04-14T07:52:56.348Z,51.47
2018-04-14T07:55:24.409Z,58.07
2018-04-14T07:57:52.493Z,46.30
2018-04-14T08:00:20.549Z,47.90
2018-04-14T08:02:48.650Z,42.13
2018-04-14T08:05:16.704Z,44.07
2018-04-14T08:07:44.769Z,39.80
2018-04-14T08:10:12.851Z,47.30
2018-04-14T08:12:40.905Z,44.58
2018-04-14T08:15:08.985Z,43.53
2018-04-14T08:17:37.045Z,43.10
2018-04-14T08:20:05.125Z,44.57
2018-04-14T08:22:33.186Z,43.90
2018-04-14T08:25:01.258Z,41.30
2018-04-14T08:27:29.312Z,46.78
2018-04-14T08:29:57.384Z,44.30
2018-04-14T08:32:25.432Z,43.57
2018-04-14T08:34:53.511Z,48.35
2018-04-14T08:37:21.627Z,49.30
2018-04-14T08:39:49.648Z,62.20
2018-04-14T08:42:17.713Z,57.77
2018-04-14T08:44:45.789Z,47.80
2018-04-14T08:47:13.889Z,38.22
2018-04-14T08:49:41.916Z,47.83
2018-04-14T08:52:09.970Z,42.85
2018-04-14T08:54:38.048Z,38.53
2018-04-14T08:57:06.105Z,37.93
2018-04-14T08:59:34.177Z,39.23
2018-04-14T09:02:02.278Z,37.50
2018-04-14T09:04:30.372Z,41.05
2018-04-14T09:06:58.430Z,37.97
2018-04-14T09:09:27.385Z,37.60
2018-04-14T09:11:55.447Z,37.67
2018-04-14T09:14:23.520Z,35.97
2018-04-14T09:16:51.579Z,37.35
2018-04-14T09:19:19.946Z,41.20
2018-04-14T09:21:48.276Z,36.33
2018-04-14T09:24:16.632Z,35.00
2018-04-14T09:26:44.977Z,36.30
2018-04-14T09:29:14.089Z,36.30
2018-04-14T09:31:42.429Z,35.20
2018-04-14T09:34:10.880Z,33.87
2018-04-14T09:36:39.222Z,33.30
2018-04-14T09:39:07.580Z,33.20
2018-04-14T09:41:35.912Z,32.90
2018-04-14T09:44:04.276Z,36.55
2018-04-14T09:46:32.615Z,36.17
2018-04-14T09:49:01.829Z,35.13
2018-04-14T09:51:30.164Z,33.67
2018-04-14T09:53:58.521Z,33.87
2018-04-14T09:56:26.910Z,33.07
2018-04-14T09:58:55.237Z,35.23
2018-04-14T10:01:27.476Z,34.17
2018-04-14T10:03:58.313Z,35.20
2018-04-14T10:06:27.637Z,33.80
2018-04-14T10:08:55.989Z,34.83
2018-04-14T10:11:24.344Z,35.07
2018-04-14T10:13:52.954Z,34.92
2018-04-14T10:16:21.312Z,34.33
2018-04-14T10:18:49.661Z,36.30
2018-04-14T10:21:18.056Z,34.30
2018-04-14T10:23:46.469Z,35.90
2018-04-14T10:26:14.882Z,34.78
2018-04-14T10:28:43.413Z,33.83
2018-04-14T10:31:12.725Z,35.33
2018-04-14T10:33:41.765Z,34.90
2018-04-14T10:36:10.181Z,33.63
2018-04-14T10:38:38.603Z,33.93
2018-04-14T10:41:07.091Z,32.40
2018-04-14T10:43:35.437Z,32.37
2018-04-14T10:46:03.829Z,34.95
2018-04-14T10:48:32.176Z,34.50
2018-04-14T10:51:00.534Z,33.85
2018-04-14T10:53:28.868Z,33.60
2018-04-14T10:55:57.224Z,32.40
2018-04-14T10:58:25.560Z,32.20
2018-04-14T11:00:53.910Z,32.37
2018-04-14T11:03:22.251Z,31.95
2018-04-14T11:05:50.604Z,33.57
2018-04-14T11:08:18.944Z,31.75
2018-04-14T11:10:47.296Z,33.17
2018-04-14T11:13:15.950Z,32.20
2018-04-14T11:15:44.309Z,30.30
2018-04-14T11:18:12.653Z,35.00
2018-04-14T11:20:41.009Z,32.80
2018-04-14T11:23:09.349Z,30.25
2018-04-14T11:25:37.706Z,32.20
2018-04-14T11:28:06.042Z,31.83
2018-04-14T11:30:34.420Z,32.77
2018-04-14T11:33:02.860Z,33.97
2018-04-14T11:35:31.228Z,34.50
2018-04-14T11:37:59.566Z,33.00
2018-04-14T11:40:27.951Z,32.90
2018-04-14T11:42:56.318Z,33.30
2018-04-14T11:45:24.685Z,32.33
2018-04-14T11:47:53.026Z,35.45
2018-04-14T11:50:21.389Z,32.40
2018-04-14T11:52:50.504Z,34.13
2018-04-14T11:55:18.872Z,31.80
2018-04-14T11:57:47.208Z,32.60
2018-04-14T12:00:15.572Z,34.80
2018-04-14T12:02:43.915Z,33.53
2018-04-14T12:05:12.271Z,35.80
2018-04-14T12:07:40.597Z,33.17
2018-04-14T12:10:08.965Z,35.73
2018-04-14T12:12:37.321Z,35.50
2018-04-14T12:15:05.661Z,32.40
2018-04-14T12:17:34.025Z,32.57
2018-04-14T12:20:02.359Z,33.27
2018-04-14T12:22:30.716Z,33.25
2018-04-14T12:24:59.051Z,32.57
2018-04-14T12:27:27.409Z,33.13
2018-04-14T12:29:55.757Z,32.50
2018-04-14T12:32:25.168Z,33.33
2018-04-14T12:34:53.499Z,34.43
2018-04-14T12:37:21.868Z,36.47
2018-04-14T12:39:50.200Z,33.43
2018-04-14T12:42:18.564Z,35.07
2018-04-14T12:44:46.901Z,37.53
2018-04-14T12:47:16.168Z,36.00
2018-04-14T12:49:44.520Z,37.20
2018-04-14T12:52:12.877Z,33.20
2018-04-14T12:54:41.216Z,35.72
2018-04-14T12:59:46.361Z,35.83
2018-04-14T13:02:14.721Z,33.93
2018-04-14T13:04:43.061Z,36.03
2018-04-14T13:07:11.421Z,36.07
2018-04-14T13:09:39.772Z,36.05
2018-04-14T13:12:08.130Z,34.03
2018-04-14T13:14:36.472Z,37.13
2018-04-14T13:17:05.576Z,38.95
2018-04-14T13:19:33.921Z,35.70
2018-04-14T13:22:02.278Z,36.50
2018-04-14T13:24:30.622Z,37.60
2018-04-14T13:26:58.994Z,36.70
2018-04-14T13:29:27.356Z,39.22
2018-04-14T13:31:55.713Z,38.08
2018-04-14T13:34:24.057Z,39.23
2018-04-14T13:36:55.076Z,36.50
2018-04-14T13:39:23.419Z,38.40
2018-04-14T13:41:51.777Z,39.00
2018-04-14T13:44:20.113Z,38.85
2018-04-14T13:46:48.488Z,38.70
2018-04-14T13:49:16.832Z,39.70
2018-04-14T13:51:45.195Z,40.17
2018-04-14T13:54:13.532Z,41.13
2018-04-14T13:56:41.880Z,37.00
2018-04-14T13:59:10.216Z,39.37
2018-04-14T14:01:38.580Z,41.70
2018-04-14T14:04:06.917Z,39.77
2018-04-14T14:06:36.212Z,39.80
2018-04-14T14:09:04.557Z,39.80
2018-04-14T14:11:32.912Z,39.97
2018-04-14T14:14:01.250Z,39.50
2018-04-14T14:16:29.600Z,38.73
2018-04-14T14:18:57.936Z,40.83
2018-04-14T14:21:26.288Z,41.90
2018-04-14T14:23:54.661Z,42.20
2018-04-14T14:26:22.956Z,39.35
2018-04-14T14:28:51.311Z,38.97
2018-04-14T14:31:19.659Z,39.88
2018-04-14T14:33:48.013Z,41.42
2018-04-14T14:36:16.350Z,42.30
2018-04-14T14:38:44.709Z,40.60
2018-04-14T14:41:13.044Z,41.40
2018-04-14T14:43:41.405Z,42.57
2018-04-14T14:46:09.732Z,39.57
2018-04-14T14:48:38.104Z,42.43
2018-04-14T14:51:06.432Z,40.50
2018-04-14T14:53:34.790Z,38.90
2018-04-14T14:56:03.128Z,39.67
2018-04-14T14:58:31.489Z,42.80
2018-04-14T15:00:59.819Z,42.17
2018-04-14T15:03:28.181Z,38.30
2018-04-14T15:05:56.512Z,41.00
2018-04-14T15:08:24.868Z,40.60
2018-04-14T15:10:53.195Z,41.20
2018-04-14T15:13:21.552Z,45.47
2018-04-14T15:15:50.665Z,40.97
2018-04-14T15:18:19.029Z,40.30
2018-04-14T15:20:47.374Z,41.40
2018-04-14T15:23:15.733Z,42.80
2018-04-14T15:25:44.068Z,39.27
2018-04-14T15:28:12.427Z,41.45
2018-04-14T15:30:40.760Z,40.30
2018-04-14T15:33:09.124Z,40.57
2018-04-14T15:35:37.460Z,40.83
2018-04-14T15:38:05.816Z,40.17
2018-04-14T15:40:34.153Z,41.90
2018-04-14T15:43:02.513Z,45.43
2018-04-14T15:45:30.853Z,47.20
2018-04-14T15:47:59.212Z,43.20
2018-04-14T15:50:27.583Z,40.70
2018-04-14T15:52:55.932Z,43.00
2018-04-14T15:55:25.160Z,46.70
2018-04-14T15:57:53.515Z,41.80
2018-04-14T16:00:21.852Z,41.70
2018-04-14T16:02:50.213Z,42.20
2018-04-14T16:05:18.551Z,47.23
2018-04-14T16:07:46.912Z,42.30
2018-04-14T16:10:15.253Z,45.00
2018-04-14T16:12:43.612Z,41.37
2018-04-14T16:15:11.985Z,45.37
2018-04-14T16:17:40.296Z,41.27
2018-04-14T16:20:08.633Z,43.37
2018-04-14T16:22:36.988Z,43.77
2018-04-14T16:25:05.320Z,41.73
2018-04-14T16:27:33.656Z,45.90
2018-04-14T16:30:02.025Z,45.35
2018-04-14T16:32:30.360Z,42.23
2018-04-14T16:34:59.460Z,41.47
2018-04-14T16:37:27.796Z,42.80
2018-04-14T16:39:56.152Z,46.50
2018-04-14T16:42:24.488Z,43.95
2018-04-14T16:44:52.845Z,44.60
2018-04-14T16:47:21.184Z,42.13
2018-04-14T16:49:49.535Z,41.97
2018-04-14T16:52:17.873Z,42.07
2018-04-14T16:54:46.236Z,43.90
2018-04-14T16:57:14.565Z,41.60
2018-04-14T16:59:42.929Z,39.70
2018-04-14T17:02:11.280Z,39.53
2018-04-14T17:04:39.634Z,39.47
2018-04-14T17:07:07.970Z,37.40
2018-04-14T17:09:36.329Z,37.53
2018-04-14T17:12:04.661Z,37.20
2018-04-14T17:14:33.876Z,35.55
2018-04-14T17:17:03.176Z,35.27
2018-04-14T17:19:31.523Z,36.30
2018-04-14T17:21:59.864Z,37.42
2018-04-14T17:24:28.220Z,34.73
2018-04-14T17:26:56.559Z,33.83
2018-04-14T17:29:24.903Z,35.03
2018-04-14T17:31:53.240Z,35.07
2018-04-14T17:34:21.599Z,35.93
2018-04-14T17:36:49.944Z,35.50
2018-04-14T17:39:18.296Z,36.07
2018-04-14T17:41:46.628Z,35.93
2018-04-14T17:44:14.989Z,37.13
2018-04-14T17:46:44.316Z,36.17
2018-04-14T17:49:12.673Z,35.45
2018-04-14T17:51:41.012Z,33.17
2018-04-14T17:54:09.413Z,35.73
2018-04-14T17:56:38.014Z,33.27
2018-04-14T17:59:06.392Z,33.43
2018-04-14T18:01:34.764Z,34.77
2018-04-14T18:04:03.128Z,29.90
2018-04-14T18:06:31.572Z,36.42
2018-04-14T18:08:59.928Z,32.33
2018-04-14T18:11:28.265Z,34.00
2018-04-14T18:13:56.615Z,34.03
2018-04-14T18:16:24.977Z,36.70
2018-04-14T18:18:53.506Z,32.70
2018-04-14T18:21:22.081Z,33.13
2018-04-14T18:23:50.978Z,33.38
2018-04-14T18:26:19.683Z,35.37
2018-04-14T18:28:48.418Z,33.33
2018-04-14T18:31:16.791Z,32.53
2018-04-14T18:33:45.492Z,33.20
2018-04-14T18:36:14.198Z,33.57
2018-04-14T18:38:42.815Z,33.13
2018-04-14T18:41:11.545Z,33.57
2018-04-14T18:43:40.340Z,33.50
2018-04-14T18:46:09.086Z,33.70
2018-04-14T18:48:37.785Z,35.70
2018-04-14T18:51:06.513Z,34.80
2018-04-14T18:53:34.856Z,32.97
2018-04-14T18:56:03.228Z,35.37
2018-04-14T18:58:31.601Z,37.63
2018-04-14T19:01:00.081Z,35.80
2018-04-14T19:03:28.416Z,39.40
2018-04-14T19:05:56.781Z,40.85
2018-04-14T19:08:25.124Z,41.20
2018-04-14T19:10:53.484Z,38.78
2018-04-14T19:13:21.820Z,37.70
2018-04-14T19:15:50.717Z,36.22
2018-04-14T19:18:19.055Z,33.13
2018-04-14T19:20:47.413Z,33.10
2018-04-14T19:23:15.763Z,33.58
2018-04-14T19:25:44.113Z,34.60
2018-04-14T19:28:12.453Z,36.20
2018-04-14T19:30:40.814Z,35.10
2018-04-14T19:33:09.144Z,33.93
2018-04-14T19:35:38.373Z,33.58
2018-04-14T19:38:06.716Z,33.60
2018-04-14T19:40:35.073Z,36.10
2018-04-14T19:43:03.415Z,32.95
2018-04-14T19:45:31.772Z,37.10
2018-04-14T19:48:00.134Z,35.85
2018-04-14T19:50:28.468Z,37.58
2018-04-14T19:52:56.813Z,41.57
2018-04-14T19:55:25.176Z,32.70
2018-04-14T19:57:53.514Z,33.67
2018-04-14T20:00:21.876Z,35.43
2018-04-14T20:02:50.220Z,32.77
2018-04-14T20:05:18.572Z,43.33
2018-04-14T20:07:46.912Z,46.70
2018-04-14T20:10:15.273Z,45.40
2018-04-14T20:12:43.627Z,42.80
2018-04-14T20:15:12.749Z,41.05
2018-04-14T20:17:41.085Z,39.63
2018-04-14T20:20:09.450Z,40.60
2018-04-14T20:22:37.785Z,41.13
2018-04-14T20:25:06.137Z,41.77
2018-04-14T20:27:34.480Z,34.97
2018-04-14T20:30:02.832Z,30.50
2018-04-14T20:32:31.168Z,29.23
2018-04-14T20:34:59.524Z,31.13
2018-04-14T20:37:27.869Z,30.17
2018-04-14T20:39:56.204Z,29.30
2018-04-14T20:42:24.565Z,30.40
2018-04-14T20:44:52.896Z,31.45
2018-04-14T20:47:21.257Z,28.97
2018-04-14T20:49:49.595Z,30.30
2018-04-14T20:52:17.949Z,29.93
2018-04-14T20:54:47.144Z,31.45
2018-04-14T20:57:15.497Z,32.87
2018-04-14T20:59:43.837Z,31.57
2018-04-14T21:02:12.188Z,33.22
2018-04-14T21:04:40.533Z,32.80
2018-04-14T21:07:09.858Z,31.10
2018-04-14T21:09:38.190Z,29.90
2018-04-14T21:12:06.549Z,29.20
2018-04-14T21:14:34.888Z,30.70
2018-04-14T21:17:03.245Z,29.60
2018-04-14T21:19:31.585Z,30.90
2018-04-14T21:21:59.940Z,35.42
2018-04-14T21:24:28.276Z,33.23
2018-04-14T21:26:56.642Z,31.23
2018-04-14T21:29:24.973Z,32.88
2018-04-14T21:31:53.329Z,33.70
2018-04-14T21:34:21.669Z,32.90
2018-04-14T21:36:50.035Z,33.30
2018-04-14T21:39:18.372Z,31.20
2018-04-14T21:41:46.732Z,33.20
2018-04-14T21:44:15.068Z,32.23
2018-04-14T21:46:43.424Z,32.10
2018-04-14T21:49:11.761Z,33.15
2018-04-14T21:51:40.117Z,31.80
2018-04-14T21:54:08.456Z,31.13
2018-04-14T21:56:36.816Z,32.60
2018-04-14T21:59:05.150Z,31.70
2018-04-14T22:01:33.505Z,33.77
2018-04-14T22:04:01.840Z,30.03
2018-04-14T22:06:30.205Z,31.40
2018-04-14T22:08:58.571Z,34.04
2018-04-14T22:11:26.933Z,33.17
2018-04-14T22:13:56.020Z,35.00
2018-04-14T22:16:24.385Z,33.23
2018-04-14T22:18:52.727Z,33.10
2018-04-14T22:21:21.089Z,33.70
2018-04-14T22:23:49.420Z,32.83
2018-04-14T22:26:17.777Z,33.67
2018-04-14T22:28:46.112Z,33.80
2018-04-14T22:31:14.792Z,33.60
2018-04-14T22:33:43.885Z,32.57
2018-04-14T22:36:12.248Z,30.48
2018-04-14T22:38:40.597Z,32.85
2018-04-14T22:41:08.961Z,33.05
2018-04-14T22:43:37.301Z,30.50
2018-04-14T22:46:05.628Z,30.98
2018-04-14T22:48:33.997Z,31.50
2018-04-14T22:51:02.341Z,33.45
2018-04-14T22:53:30.697Z,32.42
2018-04-14T22:55:59.045Z,31.27
2018-04-14T22:58:27.400Z,33.33
2018-04-14T23:00:55.732Z,35.37
2018-04-14T23:03:24.098Z,34.95
2018-04-14T23:05:52.432Z,35.60
2018-04-14T23:08:20.802Z,36.50
2018-04-14T23:10:49.140Z,39.08
2018-04-14T23:13:17.493Z,36.40
2018-04-14T23:15:45.836Z,33.40
2018-04-14T23:18:14.189Z,36.80
2018-04-14T23:20:42.528Z,36.30
2018-04-14T23:23:10.893Z,38.13
2018-04-14T23:25:39.228Z,35.70
2018-04-14T23:28:07.592Z,33.75
2018-04-14T23:30:35.940Z,34.65
2018-04-14T23:33:04.305Z,34.38
2018-04-14T23:35:32.636Z,32.88
2018-04-14T23:38:01.001Z,35.30
2018-04-14T23:40:29.350Z,32.17
2018-04-14T23:42:57.697Z,32.10
2018-04-14T23:45:26.045Z,33.05
2018-04-14T23:47:54.396Z,32.80
2018-04-14T23:50:22.740Z,34.60
2018-04-14T23:52:51.104Z,33.75
2018-04-14T23:55:19.446Z,36.05
2018-04-14T23:57:47.805Z,36.42
